createdAt,value
2019-02-03T00:01:34.768Z,64.17
2019-02-03T00:04:04.900Z,61.07
2019-02-03T00:06:33.663Z,58.90
2019-02-03T00:09:04.205Z,59.37
2019-02-03T00:11:34.732Z,62.87
2019-02-03T00:14:04.015Z,61.93
2019-02-03T00:16:32.986Z,63.30
2019-02-03T00:19:01.774Z,62.17
2019-02-03T00:21:30.997Z,62.60
2019-02-03T00:24:00.019Z,62.63
2019-02-03T00:26:28.841Z,62.83
2019-02-03T00:28:57.882Z,62.30
2019-02-03T00:31:26.811Z,64.63
2019-02-03T00:33:55.627Z,63.77
2019-02-03T00:36:24.522Z,66.80
2019-02-03T00:38:54.031Z,61.40
2019-02-03T00:41:23.022Z,67.47
2019-02-03T00:43:53.232Z,68.87
2019-02-03T00:46:22.033Z,68.93
2019-02-03T00:48:51.129Z,70.90
2019-02-03T00:51:19.957Z,68.80
2019-02-03T00:53:48.754Z,72.63
2019-02-03T00:56:17.634Z,73.10
2019-02-03T00:58:46.500Z,72.53
2019-02-03T01:01:15.325Z,77.30
2019-02-03T01:03:44.107Z,71.37
2019-02-03T01:06:12.996Z,74.73
2019-02-03T01:08:41.863Z,73.00
2019-02-03T01:11:10.775Z,73.97
2019-02-03T01:13:39.571Z,72.10
2019-02-03T01:16:08.557Z,76.60
2019-02-03T01:18:37.274Z,76.63
2019-02-03T01:21:06.090Z,72.33
2019-02-03T01:23:34.878Z,78.43
2019-02-03T01:26:03.818Z,75.20
2019-02-03T01:28:32.720Z,75.17
2019-02-03T01:31:01.988Z,79.17
2019-02-03T01:33:30.857Z,78.83
2019-02-03T01:35:59.641Z,74.47
2019-02-03T01:38:28.556Z,75.37
2019-02-03T01:40:57.321Z,74.90
2019-02-03T01:43:26.067Z,76.20
2019-02-03T01:45:54.953Z,72.73
2019-02-03T01:48:23.842Z,80.30
2019-02-03T01:50:52.639Z,72.57
2019-02-03T01:53:21.455Z,75.83
2019-02-03T01:55:50.184Z,74.73
2019-02-03T01:58:18.992Z,73.77
2019-02-03T02:00:47.852Z,79.43
2019-02-03T02:03:16.736Z,74.43
2019-02-03T02:05:45.603Z,74.20
2019-02-03T02:08:14.419Z,74.90
2019-02-03T02:10:43.251Z,70.87
2019-02-03T02:13:13.303Z,66.13
2019-02-03T02:15:42.131Z,71.73
2019-02-03T02:18:10.945Z,68.00
2019-02-03T02:20:39.665Z,71.07
2019-02-03T02:23:08.596Z,66.50
2019-02-03T02:25:37.411Z,72.07
2019-02-03T02:28:06.559Z,71.67
2019-02-03T02:30:35.523Z,69.53
2019-02-03T02:33:04.432Z,69.37
2019-02-03T02:35:33.314Z,71.00
2019-02-03T02:38:07.095Z,70.60
2019-02-03T02:40:32.692Z,67.70
2019-02-03T02:43:01.482Z,69.13
2019-02-03T02:45:30.222Z,71.60
2019-02-03T02:47:59.011Z,65.00
2019-02-03T02:50:33.200Z,64.80
2019-02-03T02:53:01.985Z,69.67
2019-02-03T02:55:31.291Z,67.00
2019-02-03T02:58:00.194Z,66.53
2019-02-03T03:00:29.003Z,64.33
2019-02-03T03:02:57.980Z,64.30
2019-02-03T03:05:26.913Z,66.63
2019-02-03T03:07:55.867Z,68.50
2019-02-03T03:10:24.863Z,65.10
2019-02-03T03:12:53.648Z,66.80
2019-02-03T03:15:22.509Z,66.37
2019-02-03T03:17:51.397Z,65.93
2019-02-03T03:20:21.242Z,65.20
2019-02-03T03:22:50.631Z,66.67
2019-02-03T03:25:21.399Z,64.33
2019-02-03T03:27:50.353Z,62.20
2019-02-03T03:30:21.298Z,67.67
2019-02-03T03:32:50.255Z,64.47
2019-02-03T03:35:19.389Z,64.03
2019-02-03T03:37:48.288Z,63.90
2019-02-03T03:40:25.172Z,67.50
2019-02-03T03:42:54.130Z,64.70
2019-02-03T03:45:23.150Z,63.77
2019-02-03T03:47:51.979Z,66.57
2019-02-03T03:50:20.907Z,63.97
2019-02-03T03:52:49.880Z,65.87
2019-02-03T03:55:18.810Z,64.43
2019-02-03T03:57:47.700Z,64.60
2019-02-03T04:00:19.013Z,63.33
2019-02-03T04:02:48.300Z,67.20
2019-02-03T04:05:17.231Z,66.63
2019-02-03T04:07:46.175Z,65.07
2019-02-03T04:10:19.955Z,66.17
2019-02-03T04:12:48.903Z,61.07
2019-02-03T04:15:19.370Z,61.87
2019-02-03T04:17:48.556Z,62.73
2019-02-03T04:20:20.071Z,65.67
2019-02-03T04:22:48.962Z,68.37
2019-02-03T04:25:17.919Z,64.20
2019-02-03T04:27:46.893Z,66.70
2019-02-03T04:30:22.047Z,70.33
2019-02-03T04:32:51.014Z,66.40
2019-02-03T04:35:19.841Z,70.43
2019-02-03T04:37:48.691Z,71.40
2019-02-03T04:40:19.352Z,69.63
2019-02-03T04:42:48.591Z,68.20
2019-02-03T04:45:18.140Z,69.50
2019-02-03T04:47:47.118Z,67.37
2019-02-03T04:50:17.686Z,71.70
2019-02-03T04:52:46.613Z,73.73
2019-02-03T04:55:17.666Z,71.07
2019-02-03T04:57:46.629Z,66.20
2019-02-03T05:00:22.963Z,69.30
2019-02-03T05:02:51.906Z,76.37
2019-02-03T05:05:20.803Z,71.83
2019-02-03T05:07:49.668Z,71.97
2019-02-03T05:10:19.250Z,72.27
2019-02-03T05:12:48.051Z,73.63
2019-02-03T05:15:19.374Z,71.03
2019-02-03T05:17:48.321Z,75.73
2019-02-03T05:20:19.760Z,75.67
2019-02-03T05:22:48.779Z,75.30
2019-02-03T05:25:17.723Z,65.47
2019-02-03T05:27:46.505Z,69.03
2019-02-03T05:30:18.151Z,67.40
2019-02-03T05:32:46.977Z,68.57
2019-02-03T05:35:15.792Z,74.67
2019-02-03T05:37:44.610Z,74.53
2019-02-03T05:40:15.684Z,73.80
2019-02-03T05:42:44.912Z,72.30
2019-02-03T05:45:18.827Z,73.33
2019-02-03T05:47:49.996Z,69.90
2019-02-03T05:50:20.409Z,75.03
2019-02-03T05:52:49.463Z,68.00
2019-02-03T05:55:18.802Z,70.80
2019-02-03T05:57:47.839Z,73.80
2019-02-03T06:00:24.891Z,70.87
2019-02-03T06:02:53.692Z,70.30
2019-02-03T06:05:22.549Z,66.43
2019-02-03T06:07:54.355Z,68.37
2019-02-03T06:10:23.330Z,65.67
2019-02-03T06:12:53.134Z,63.07
2019-02-03T06:15:21.971Z,65.70
2019-02-03T06:17:51.032Z,67.80
2019-02-03T06:20:20.021Z,65.30
2019-02-03T06:22:48.907Z,65.23
2019-02-03T06:25:17.878Z,62.17
2019-02-03T06:27:46.862Z,66.37
2019-02-03T06:30:24.766Z,65.83
2019-02-03T06:32:53.615Z,65.60
2019-02-03T06:35:22.486Z,66.23
2019-02-03T06:37:51.457Z,63.40
2019-02-03T06:40:20.956Z,65.07
2019-02-03T06:42:49.792Z,66.30
2019-02-03T06:45:18.610Z,65.70
2019-02-03T06:47:47.477Z,66.50
2019-02-03T06:50:16.238Z,59.90
2019-02-03T06:52:44.987Z,62.77
2019-02-03T06:55:13.906Z,61.53
2019-02-03T06:57:42.828Z,62.97
2019-02-03T07:00:13.581Z,61.63
2019-02-03T07:02:42.494Z,62.20
2019-02-03T07:05:11.530Z,61.03
2019-02-03T07:07:40.400Z,62.73
2019-02-03T07:10:11.442Z,60.43
2019-02-03T07:12:40.228Z,58.90
2019-02-03T07:15:10.299Z,61.10
2019-02-03T07:17:39.292Z,54.17
2019-02-03T07:20:18.617Z,58.53
2019-02-03T07:22:47.526Z,58.40
2019-02-03T07:25:16.374Z,57.10
2019-02-03T07:27:45.286Z,53.87
2019-02-03T07:30:27.390Z,56.37
2019-02-03T07:32:57.283Z,50.90
2019-02-03T07:35:26.216Z,53.80
2019-02-03T07:37:57.711Z,53.37
2019-02-03T07:40:26.690Z,52.27
2019-02-03T07:42:55.524Z,49.97
2019-02-03T07:45:26.286Z,48.93
2019-02-03T07:47:55.153Z,50.60
2019-02-03T07:50:24.169Z,46.80
2019-02-03T07:52:53.205Z,47.03
2019-02-03T07:55:22.124Z,46.90
2019-02-03T07:57:50.874Z,47.40
2019-02-03T08:00:21.236Z,44.93
2019-02-03T08:02:50.097Z,46.37
2019-02-03T08:05:19.063Z,43.63
2019-02-03T08:07:47.891Z,42.03
2019-02-03T08:10:25.357Z,44.23
2019-02-03T08:12:48.833Z,43.80
2019-02-03T08:15:21.168Z,42.60
2019-02-03T08:17:50.056Z,42.07
2019-02-03T08:20:21.192Z,42.63
2019-02-03T08:22:50.031Z,40.43
2019-02-03T08:25:18.961Z,40.60
2019-02-03T08:27:48.088Z,39.00
2019-02-03T08:30:25.606Z,39.83
2019-02-03T08:32:54.431Z,38.80
2019-02-03T08:35:23.294Z,37.67
2019-02-03T08:37:52.110Z,37.90
2019-02-03T08:40:36.527Z,34.87
2019-02-03T08:42:56.202Z,32.10
2019-02-03T08:45:25.318Z,33.50
2019-02-03T08:47:54.500Z,31.57
2019-02-03T08:50:24.568Z,32.37
2019-02-03T08:52:53.441Z,31.77
2019-02-03T08:55:22.481Z,30.10
2019-02-03T08:57:51.338Z,27.93
2019-02-03T09:00:28.683Z,27.43
2019-02-03T09:02:57.608Z,28.57
2019-02-03T09:05:26.601Z,29.10
2019-02-03T09:07:55.457Z,26.63
2019-02-03T09:10:25.837Z,29.20
2019-02-03T09:12:54.631Z,27.13
2019-02-03T09:15:27.942Z,26.77
2019-02-03T09:17:56.881Z,25.03
2019-02-03T09:20:33.882Z,24.70
2019-02-03T09:23:03.127Z,23.23
2019-02-03T09:25:32.028Z,22.40
2019-02-03T09:28:00.955Z,22.77
2019-02-03T09:30:31.750Z,22.33
2019-02-03T09:33:00.601Z,22.47
2019-02-03T09:35:29.401Z,19.03
2019-02-03T09:37:58.360Z,20.00
2019-02-03T09:40:29.491Z,16.27
2019-02-03T09:42:58.352Z,18.10
2019-02-03T09:45:27.616Z,16.77
2019-02-03T09:47:56.466Z,15.97
2019-02-03T09:50:29.681Z,16.10
2019-02-03T09:53:00.372Z,14.70
2019-02-03T09:55:29.482Z,15.23
2019-02-03T09:57:59.528Z,15.27
2019-02-03T10:00:30.469Z,15.30
2019-02-03T10:03:00.091Z,13.17
2019-02-03T10:05:28.973Z,13.03
2019-02-03T10:07:57.715Z,13.33
2019-02-03T10:10:28.768Z,13.83
2019-02-03T10:12:58.020Z,13.87
2019-02-03T10:15:27.070Z,11.93
2019-02-03T10:17:56.014Z,13.17
2019-02-03T10:20:24.973Z,10.53
2019-02-03T10:22:53.849Z,10.93
2019-02-03T10:25:24.874Z,11.30
2019-02-03T10:27:53.822Z,9.97
2019-02-03T10:30:23.951Z,10.93
2019-02-03T10:32:52.982Z,10.53
2019-02-03T10:35:26.255Z,10.57
2019-02-03T10:37:55.207Z,9.93
2019-02-03T10:40:26.799Z,10.30
2019-02-03T10:42:57.477Z,9.73
2019-02-03T10:45:26.412Z,9.40
2019-02-03T10:47:55.373Z,9.03
2019-02-03T10:50:27.082Z,8.70
2019-02-03T10:52:56.125Z,8.93
2019-02-03T10:55:25.076Z,9.10
2019-02-03T10:57:54.241Z,10.40
2019-02-03T11:00:31.658Z,8.30
2019-02-03T11:03:00.634Z,8.13
2019-02-03T11:05:41.167Z,9.50
2019-02-03T11:08:11.251Z,8.47
2019-02-03T11:10:40.299Z,8.43
2019-02-03T11:13:09.204Z,8.77
2019-02-03T11:15:38.101Z,8.17
2019-02-03T11:18:07.029Z,7.93
2019-02-03T11:20:36.146Z,8.07
2019-02-03T11:23:05.222Z,8.83
2019-02-03T11:25:34.165Z,8.50
2019-02-03T11:28:03.782Z,7.87
2019-02-03T11:30:32.793Z,8.20
2019-02-03T11:33:07.871Z,7.63
2019-02-03T11:35:33.584Z,7.43
2019-02-03T11:38:03.359Z,7.67
2019-02-03T11:40:34.535Z,7.00
2019-02-03T11:43:03.862Z,6.13
2019-02-03T11:45:35.500Z,7.10
2019-02-03T11:48:09.908Z,6.90
2019-02-03T11:50:41.332Z,6.60
2019-02-03T11:53:12.721Z,7.33
2019-02-03T11:55:41.601Z,6.53
2019-02-03T11:58:11.258Z,6.73
2019-02-03T12:00:40.181Z,5.90
2019-02-03T12:03:09.164Z,6.10
2019-02-03T12:05:38.193Z,6.03
2019-02-03T12:08:06.940Z,5.67
2019-02-03T12:10:35.365Z,6.00
2019-02-03T12:13:04.326Z,5.87
2019-02-03T12:15:33.138Z,7.53
2019-02-03T12:18:01.587Z,5.77
2019-02-03T12:20:29.946Z,5.37
2019-02-03T12:22:58.593Z,5.40
2019-02-03T12:25:28.074Z,5.20
2019-02-03T12:27:56.563Z,5.93
2019-02-03T12:30:26.275Z,5.97
2019-02-03T12:32:54.669Z,5.13
2019-02-03T12:35:23.009Z,5.27
2019-02-03T12:37:51.515Z,5.13
2019-02-03T12:40:21.116Z,3.90
2019-02-03T12:42:49.511Z,4.17
2019-02-03T12:45:19.059Z,4.10
2019-02-03T12:47:48.748Z,4.80
2019-02-03T12:50:17.300Z,3.80
2019-02-03T12:52:46.373Z,4.10
2019-02-03T12:55:16.178Z,4.07
2019-02-03T12:57:46.680Z,4.00
2019-02-03T13:00:18.632Z,3.83
2019-02-03T13:02:47.022Z,4.23
2019-02-03T13:05:16.501Z,4.03
2019-02-03T13:07:44.906Z,4.10
2019-02-03T13:10:16.696Z,3.77
2019-02-03T13:12:44.724Z,3.90
2019-02-03T13:15:17.330Z,4.23
2019-02-03T13:17:45.671Z,3.83
2019-02-03T13:20:15.570Z,4.90
2019-02-03T13:22:43.909Z,3.43
2019-02-03T13:25:12.664Z,3.87
2019-02-03T13:27:40.933Z,3.80
2019-02-03T13:30:13.791Z,3.60
2019-02-03T13:32:42.070Z,4.40
2019-02-03T13:35:10.623Z,3.97
2019-02-03T13:37:39.337Z,3.00
2019-02-03T13:40:09.122Z,4.23
2019-02-03T13:42:37.858Z,4.43
2019-02-03T13:45:07.795Z,3.40
2019-02-03T13:47:36.191Z,3.40
2019-02-03T13:50:06.108Z,3.07
2019-02-03T13:52:34.384Z,3.40
2019-02-03T13:55:03.649Z,3.60
2019-02-03T13:57:32.010Z,3.50
2019-02-03T14:00:00.386Z,3.23
2019-02-03T14:02:28.798Z,3.60
2019-02-03T14:04:57.541Z,3.47
2019-02-03T14:07:25.819Z,3.90
2019-02-03T14:09:54.191Z,3.63
2019-02-03T14:12:22.576Z,3.40
2019-02-03T14:14:50.931Z,3.50
2019-02-03T14:17:20.199Z,3.73
2019-02-03T14:19:48.755Z,3.53
2019-02-03T14:22:17.049Z,3.20
2019-02-03T14:24:45.327Z,3.20
2019-02-03T14:27:13.722Z,3.67
2019-02-03T14:29:42.066Z,4.10
2019-02-03T14:32:10.468Z,3.80
2019-02-03T14:34:39.269Z,3.70
2019-02-03T14:37:07.650Z,3.40
2019-02-03T14:39:35.988Z,3.53
2019-02-03T14:42:04.552Z,3.33
2019-02-03T14:44:33.011Z,3.70
2019-02-03T14:47:01.308Z,3.60
2019-02-03T14:49:29.923Z,3.70
2019-02-03T14:51:58.317Z,3.30
2019-02-03T14:54:26.678Z,3.83
2019-02-03T14:56:55.061Z,3.80
2019-02-03T14:59:23.348Z,3.10
2019-02-03T15:01:51.773Z,3.40
2019-02-03T15:04:20.078Z,3.67
2019-02-03T15:06:49.001Z,3.97
2019-02-03T15:09:17.450Z,4.03
2019-02-03T15:11:45.809Z,3.70
2019-02-03T15:14:14.270Z,3.33
2019-02-03T15:16:42.622Z,3.43
2019-02-03T15:19:10.940Z,3.27
2019-02-03T15:21:39.373Z,3.87
2019-02-03T15:24:15.908Z,3.73
2019-02-03T15:26:37.815Z,4.10
2019-02-03T15:29:06.212Z,3.70
2019-02-03T15:31:34.570Z,3.43
2019-02-03T15:34:03.424Z,3.93
2019-02-03T15:36:31.776Z,3.70
2019-02-03T15:39:00.164Z,3.70
2019-02-03T15:41:28.540Z,4.03
2019-02-03T15:43:56.809Z,4.60
2019-02-03T15:46:25.631Z,4.60
2019-02-03T15:48:53.911Z,4.30
2019-02-03T15:51:22.313Z,4.03
2019-02-03T15:53:50.949Z,4.23
2019-02-03T15:56:19.328Z,4.27
2019-02-03T15:58:47.691Z,4.63
2019-02-03T16:01:16.812Z,4.37
2019-02-03T16:03:45.603Z,5.23
2019-02-03T16:06:14.367Z,4.80
2019-02-03T16:08:43.087Z,4.67
2019-02-03T16:11:11.903Z,5.30
2019-02-03T16:13:40.636Z,4.93
2019-02-03T16:16:09.834Z,4.93
2019-02-03T16:18:38.567Z,5.27
2019-02-03T16:21:07.330Z,4.90
2019-02-03T16:23:36.058Z,5.43
2019-02-03T16:26:04.929Z,4.47
2019-02-03T16:28:33.767Z,5.37
2019-02-03T16:31:03.148Z,6.37
2019-02-03T16:33:32.791Z,5.67
2019-02-03T16:36:02.204Z,6.00
2019-02-03T16:38:31.466Z,5.13
2019-02-03T16:41:01.025Z,5.00
2019-02-03T16:43:30.577Z,5.90
2019-02-03T16:46:00.123Z,4.83
2019-02-03T16:48:29.583Z,5.17
2019-02-03T16:50:58.922Z,5.77
2019-02-03T16:53:28.566Z,5.70
2019-02-03T16:55:57.923Z,4.97
2019-02-03T16:58:27.540Z,5.07
2019-02-03T17:00:56.826Z,5.20
2019-02-03T17:03:26.214Z,5.60
2019-02-03T17:05:55.793Z,5.73
2019-02-03T17:08:25.260Z,6.27
2019-02-03T17:10:54.641Z,5.43
2019-02-03T17:13:25.174Z,6.60
2019-02-03T17:15:54.597Z,5.67
2019-02-03T17:18:23.956Z,6.30
2019-02-03T17:21:01.441Z,5.77
2019-02-03T17:23:24.124Z,5.40
2019-02-03T17:25:59.220Z,5.90
2019-02-03T17:28:28.684Z,5.57
2019-02-03T17:30:58.093Z,6.03
2019-02-03T17:33:27.572Z,5.40
2019-02-03T17:35:56.897Z,6.10
2019-02-03T17:38:26.278Z,5.97
2019-02-03T17:40:55.582Z,5.70
2019-02-03T17:43:24.953Z,6.90
2019-02-03T17:45:54.292Z,6.50
2019-02-03T17:48:23.644Z,6.87
2019-02-03T17:50:53.087Z,6.80
2019-02-03T17:53:22.406Z,6.87
2019-02-03T17:55:51.985Z,7.60
2019-02-03T17:58:21.409Z,7.97
2019-02-03T18:00:50.978Z,7.00
2019-02-03T18:03:20.181Z,6.60
2019-02-03T18:05:50.183Z,6.80
2019-02-03T18:08:19.865Z,7.17
2019-02-03T18:10:49.300Z,6.77
2019-02-03T18:13:18.563Z,7.77
2019-02-03T18:15:47.997Z,7.23
2019-02-03T18:18:17.686Z,7.10
2019-02-03T18:20:48.351Z,7.00
2019-02-03T18:23:17.772Z,7.90
2019-02-03T18:25:48.195Z,6.93
2019-02-03T18:28:17.629Z,7.53
2019-02-03T18:30:47.112Z,8.83
2019-02-03T18:33:16.445Z,7.70
2019-02-03T18:35:46.077Z,8.50
2019-02-03T18:38:15.514Z,7.77
2019-02-03T18:40:44.934Z,7.10
2019-02-03T18:43:14.340Z,7.53
2019-02-03T18:45:44.134Z,6.90
2019-02-03T18:48:13.791Z,7.43
2019-02-03T18:50:43.469Z,6.93
2019-02-03T18:53:12.921Z,8.50
2019-02-03T18:55:45.408Z,8.97
2019-02-03T18:58:14.851Z,10.33
2019-02-03T19:00:44.310Z,10.10
2019-02-03T19:03:13.959Z,9.77
2019-02-03T19:05:43.595Z,11.03
2019-02-03T19:08:13.351Z,10.83
2019-02-03T19:10:42.802Z,10.05
2019-02-03T19:13:12.335Z,9.77
2019-02-03T19:15:42.109Z,9.23
2019-02-03T19:18:11.593Z,8.13
2019-02-03T19:20:42.297Z,10.33
2019-02-03T19:23:12.858Z,9.17
2019-02-03T19:25:42.781Z,10.23
2019-02-03T19:28:12.160Z,10.50
2019-02-03T19:30:41.525Z,9.63
2019-02-03T19:33:10.991Z,9.80
2019-02-03T19:35:40.425Z,9.80
2019-02-03T19:38:10.415Z,9.90
2019-02-03T19:40:39.794Z,10.90
2019-02-03T19:43:09.496Z,11.10
2019-02-03T19:45:38.858Z,11.83
2019-02-03T19:48:08.339Z,10.83
2019-02-03T19:50:39.557Z,11.87
2019-02-03T19:53:10.443Z,10.70
2019-02-03T19:55:39.843Z,11.73
2019-02-03T19:58:09.262Z,10.90
2019-02-03T20:00:43.757Z,11.43
2019-02-03T20:03:13.187Z,10.67
2019-02-03T20:05:43.426Z,11.57
2019-02-03T20:08:12.943Z,11.17
2019-02-03T20:10:42.467Z,10.00
2019-02-03T20:13:11.739Z,10.43
2019-02-03T20:15:41.253Z,10.80
2019-02-03T20:18:10.781Z,10.77
2019-02-03T20:20:40.760Z,10.83
2019-02-03T20:23:10.549Z,11.03
2019-02-03T20:25:40.522Z,10.40
2019-02-03T20:28:09.963Z,10.53
2019-02-03T20:30:39.605Z,10.83
2019-02-03T20:33:09.005Z,10.83
2019-02-03T20:35:38.691Z,10.63
2019-02-03T20:38:08.139Z,10.87
2019-02-03T20:40:40.649Z,10.40
2019-02-03T20:43:10.085Z,10.43
2019-02-03T20:45:48.838Z,10.83
2019-02-03T20:48:11.206Z,10.50
2019-02-03T20:50:40.917Z,9.90
2019-02-03T20:53:10.440Z,11.30
2019-02-03T20:55:39.883Z,11.07
2019-02-03T20:58:09.200Z,11.00
2019-02-03T21:00:38.691Z,10.77
2019-02-03T21:03:08.174Z,10.87
2019-02-03T21:05:37.498Z,11.27
2019-02-03T21:08:06.922Z,10.93
2019-02-03T21:10:36.337Z,11.93
2019-02-03T21:13:11.215Z,11.67
2019-02-03T21:15:36.812Z,10.63
2019-02-03T21:18:07.953Z,11.80
2019-02-03T21:20:37.438Z,10.97
2019-02-03T21:23:06.823Z,12.17
2019-02-03T21:25:36.232Z,13.17
2019-02-03T21:28:05.762Z,12.60
2019-02-03T21:30:37.054Z,12.23
2019-02-03T21:33:06.765Z,11.80
2019-02-03T21:35:36.032Z,12.67
2019-02-03T21:38:06.071Z,11.10
2019-02-03T21:40:35.522Z,11.43
2019-02-03T21:43:05.413Z,11.90
2019-02-03T21:45:44.435Z,12.07
2019-02-03T21:48:06.494Z,13.03
2019-02-03T21:50:35.949Z,11.17
2019-02-03T21:53:05.419Z,12.50
2019-02-03T21:55:34.759Z,11.57
2019-02-03T21:58:04.554Z,12.30
2019-02-03T22:00:33.975Z,11.20
2019-02-03T22:03:03.361Z,12.00
2019-02-03T22:05:32.855Z,11.60
2019-02-03T22:08:02.478Z,11.30
2019-02-03T22:10:33.784Z,11.47
2019-02-03T22:13:03.901Z,11.37
2019-02-03T22:15:33.260Z,11.00
2019-02-03T22:18:02.639Z,11.87
2019-02-03T22:20:31.926Z,11.40
2019-02-03T22:23:01.332Z,11.80
2019-02-03T22:25:30.642Z,11.30
2019-02-03T22:28:00.007Z,10.83
2019-02-03T22:30:34.547Z,11.00
2019-02-03T22:33:05.231Z,10.53
2019-02-03T22:35:34.600Z,11.40
2019-02-03T22:38:04.857Z,11.57
2019-02-03T22:40:34.167Z,11.37
2019-02-03T22:43:03.571Z,11.47
2019-02-03T22:45:32.959Z,11.20
2019-02-03T22:48:02.154Z,10.67
2019-02-03T22:50:32.824Z,11.63
2019-02-03T22:53:02.372Z,10.57
2019-02-03T22:55:31.900Z,11.13
2019-02-03T22:58:01.224Z,11.57
2019-02-03T23:00:51.450Z,12.30
2019-02-03T23:03:30.646Z,11.57
2019-02-03T23:06:00.093Z,11.63
2019-02-03T23:08:29.454Z,13.50
2019-02-03T23:10:58.694Z,12.13
2019-02-03T23:13:27.921Z,12.60
2019-02-03T23:15:57.373Z,13.60
2019-02-03T23:18:26.726Z,14.77
2019-02-03T23:20:55.990Z,14.47
2019-02-03T23:23:25.358Z,14.93
2019-02-03T23:25:54.707Z,14.60
2019-02-03T23:28:24.449Z,14.93
2019-02-03T23:30:53.798Z,15.80
2019-02-03T23:33:23.124Z,15.53
2019-02-03T23:35:52.519Z,16.17
2019-02-03T23:38:21.749Z,15.80
2019-02-03T23:40:51.206Z,15.27
2019-02-03T23:43:20.645Z,16.07
2019-02-03T23:45:50.235Z,16.70
2019-02-03T23:48:19.539Z,16.97
2019-02-03T23:50:48.836Z,16.07
2019-02-03T23:53:18.075Z,16.77
2019-02-03T23:55:47.433Z,16.50
2019-02-03T23:58:16.667Z,17.47
